createdAt,value
2018-07-16T00:00:00.353Z,0.00
2018-07-16T00:01:00.419Z,0.00
2018-07-16T00:02:00.406Z,0.00
2018-07-16T00:03:00.437Z,0.00
2018-07-16T00:04:00.464Z,0.00
2018-07-16T00:05:00.492Z,0.00
2018-07-16T00:06:00.521Z,0.00
2018-07-16T00:07:00.553Z,0.00
2018-07-16T00:08:00.579Z,0.00
2018-07-16T00:09:00.612Z,0.00
2018-07-16T00:10:00.638Z,0.00
2018-07-16T00:11:00.665Z,0.00
2018-07-16T00:12:00.694Z,0.00
2018-07-16T00:13:00.724Z,0.00
2018-07-16T00:14:00.750Z,4.00
2018-07-16T00:15:00.779Z,4.00
2018-07-16T00:16:00.809Z,4.00
2018-07-16T00:17:00.838Z,4.00
2018-07-16T00:18:00.865Z,4.00
2018-07-16T00:19:00.899Z,4.00
2018-07-16T00:20:00.927Z,4.00
2018-07-16T00:21:00.950Z,4.00
2018-07-16T00:22:00.979Z,0.00
2018-07-16T00:23:01.043Z,0.00
2018-07-16T00:24:01.040Z,0.00
2018-07-16T00:25:01.066Z,0.00
2018-07-16T00:26:01.093Z,4.00
2018-07-16T00:27:01.142Z,4.00
2018-07-16T00:28:01.151Z,4.00
2018-07-16T00:29:01.180Z,4.00
2018-07-16T00:30:01.208Z,4.00
2018-07-16T00:31:01.237Z,4.00
2018-07-16T00:32:01.267Z,4.00
2018-07-16T00:33:01.296Z,4.00
2018-07-16T00:34:01.323Z,4.00
2018-07-16T00:35:01.351Z,8.00
2018-07-16T00:36:01.383Z,4.00
2018-07-16T00:37:01.428Z,4.00
2018-07-16T00:38:01.438Z,4.00
2018-07-16T00:39:01.466Z,4.00
2018-07-16T00:40:01.515Z,4.00
2018-07-16T00:41:01.522Z,8.00
2018-07-16T00:42:01.552Z,8.00
2018-07-16T00:43:01.581Z,8.00
2018-07-16T00:44:01.609Z,8.00
2018-07-16T00:45:01.638Z,4.00
2018-07-16T00:46:01.666Z,8.00
2018-07-16T00:47:01.695Z,8.00
2018-07-16T00:48:01.756Z,8.00
2018-07-16T00:49:01.752Z,8.00
2018-07-16T00:50:01.810Z,8.00
2018-07-16T00:51:01.812Z,12.00
2018-07-16T00:52:01.838Z,12.00
2018-07-16T00:53:01.865Z,8.00
2018-07-16T00:54:01.895Z,8.00
2018-07-16T00:55:01.926Z,12.00
2018-07-16T00:56:01.973Z,12.00
2018-07-16T00:57:02.021Z,12.00
2018-07-16T00:58:02.009Z,8.00
2018-07-16T00:59:02.038Z,12.00
2018-07-16T01:00:02.067Z,12.00
2018-07-16T01:01:02.095Z,12.00
2018-07-16T01:02:02.123Z,16.00
2018-07-16T01:03:02.154Z,12.00
2018-07-16T01:04:02.181Z,12.00
2018-07-16T01:05:02.209Z,16.00
2018-07-16T01:06:02.237Z,16.00
2018-07-16T01:07:02.268Z,16.00
2018-07-16T01:08:02.295Z,16.00
2018-07-16T01:09:02.324Z,16.00
2018-07-16T01:10:02.352Z,16.00
2018-07-16T01:11:02.380Z,20.00
2018-07-16T01:12:02.410Z,20.00
2018-07-16T01:13:02.438Z,16.00
2018-07-16T01:14:02.469Z,20.00
2018-07-16T01:15:02.498Z,20.00
2018-07-16T01:16:02.524Z,24.00
2018-07-16T01:17:02.554Z,20.00
2018-07-16T01:18:02.580Z,24.00
2018-07-16T01:19:02.610Z,24.00
2018-07-16T01:20:02.638Z,24.00
2018-07-16T01:21:02.667Z,24.00
2018-07-16T01:22:02.695Z,28.00
2018-07-16T01:23:02.767Z,24.00
2018-07-16T01:24:02.752Z,28.00
2018-07-16T01:25:02.781Z,28.00
2018-07-16T01:26:02.820Z,28.00
2018-07-16T01:27:02.838Z,36.00
2018-07-16T01:28:02.867Z,36.00
2018-07-16T01:29:02.901Z,32.00
2018-07-16T01:30:02.923Z,36.00
2018-07-16T01:31:02.952Z,36.00
2018-07-16T01:32:02.980Z,36.00
2018-07-16T01:33:03.049Z,40.00
2018-07-16T01:34:03.040Z,44.00
2018-07-16T01:35:03.066Z,44.00
2018-07-16T01:36:03.095Z,44.00
2018-07-16T01:37:03.123Z,52.00
2018-07-16T01:38:03.154Z,52.00
2018-07-16T01:39:03.184Z,56.00
2018-07-16T01:40:03.209Z,60.00
2018-07-16T01:41:03.238Z,60.00
2018-07-16T01:42:03.266Z,64.00
2018-07-16T01:43:03.300Z,64.00
2018-07-16T01:44:03.324Z,64.00
2018-07-16T01:45:03.353Z,68.00
2018-07-16T01:46:03.382Z,68.00
2018-07-16T01:47:03.410Z,68.00
2018-07-16T01:48:03.438Z,72.00
2018-07-16T01:49:03.470Z,76.00
2018-07-16T01:50:03.494Z,76.00
2018-07-16T01:51:03.525Z,76.00
2018-07-16T01:52:03.553Z,80.00
2018-07-16T01:53:03.580Z,84.00
2018-07-16T01:54:03.608Z,84.00
2018-07-16T01:55:03.639Z,88.00
2018-07-16T01:56:03.667Z,92.00
2018-07-16T01:57:03.694Z,96.00
2018-07-16T01:58:03.723Z,92.00
2018-07-16T01:59:03.752Z,100.00
2018-07-16T02:00:03.784Z,100.00
2018-07-16T02:01:03.808Z,104.00
2018-07-16T02:02:03.837Z,108.00
2018-07-16T02:03:03.866Z,108.00
2018-07-16T02:04:03.895Z,116.00
2018-07-16T02:05:03.925Z,120.00
2018-07-16T02:06:03.952Z,120.00
2018-07-16T02:07:03.981Z,124.00
2018-07-16T02:08:04.009Z,128.00
2018-07-16T02:09:04.046Z,136.00
2018-07-16T02:10:04.120Z,136.00
2018-07-16T02:11:04.098Z,140.00
2018-07-16T02:12:04.129Z,144.00
2018-07-16T02:13:04.189Z,148.00
2018-07-16T02:14:04.180Z,152.00
2018-07-16T02:15:04.211Z,156.00
2018-07-16T02:16:04.238Z,164.00
2018-07-16T02:17:04.266Z,180.00
2018-07-16T02:18:04.295Z,212.00
2018-07-16T02:19:04.331Z,224.00
2018-07-16T02:20:04.352Z,208.00
2018-07-16T02:21:04.384Z,192.00
2018-07-16T02:22:04.409Z,188.00
2018-07-16T02:23:04.437Z,192.00
2018-07-16T02:24:04.467Z,196.00
2018-07-16T02:25:04.495Z,204.00
2018-07-16T02:26:04.528Z,208.00
2018-07-16T02:27:04.553Z,212.00
2018-07-16T02:28:04.581Z,216.00
2018-07-16T02:29:04.610Z,224.00
2018-07-16T02:30:04.638Z,236.00
2018-07-16T02:31:04.667Z,248.00
2018-07-16T02:32:04.699Z,260.00
2018-07-16T02:33:04.723Z,272.00
2018-07-16T02:34:04.752Z,280.00
2018-07-16T02:35:04.782Z,292.00
2018-07-16T02:36:04.810Z,304.00
2018-07-16T02:37:04.840Z,308.00
2018-07-16T02:38:04.867Z,312.00
2018-07-16T02:39:04.902Z,340.00
2018-07-16T02:40:04.931Z,376.00
2018-07-16T02:41:04.953Z,412.00
2018-07-16T02:42:05.008Z,440.00
2018-07-16T02:43:05.019Z,436.00
2018-07-16T02:44:05.051Z,476.00
2018-07-16T02:45:05.067Z,572.00
2018-07-16T02:46:05.096Z,648.00
2018-07-16T02:47:05.205Z,636.00
2018-07-16T02:48:05.154Z,652.00
2018-07-16T02:49:05.185Z,744.00
2018-07-16T02:50:05.213Z,844.00
2018-07-16T02:51:05.240Z,868.00
2018-07-16T02:52:05.292Z,864.00
2018-07-16T02:53:05.299Z,936.00
2018-07-16T02:54:05.325Z,992.00
2018-07-16T02:55:05.394Z,984.00
2018-07-16T02:56:05.386Z,1008.00
2018-07-16T02:57:05.411Z,1044.00
2018-07-16T02:58:05.440Z,1080.00
2018-07-16T02:59:05.468Z,1132.00
2018-07-16T03:00:05.498Z,1340.00
2018-07-16T03:01:05.527Z,1568.00
2018-07-16T03:02:05.554Z,1692.00
2018-07-16T03:03:05.588Z,1732.00
2018-07-16T03:04:05.616Z,1764.00
2018-07-16T03:05:05.641Z,1792.00
2018-07-16T03:06:05.669Z,1816.00
2018-07-16T03:07:05.701Z,1832.00
2018-07-16T03:08:05.727Z,1816.00
2018-07-16T03:09:05.756Z,1740.00
2018-07-16T03:10:05.787Z,1628.00
2018-07-16T03:11:05.830Z,1500.00
2018-07-16T03:12:05.842Z,1420.00
2018-07-16T03:13:05.907Z,1340.00
2018-07-16T03:14:05.899Z,1232.00
2018-07-16T03:15:05.956Z,1188.00
2018-07-16T03:16:05.959Z,1168.00
2018-07-16T03:17:05.985Z,1156.00
2018-07-16T03:18:06.119Z,1204.00
2018-07-16T03:19:06.047Z,1256.00
2018-07-16T03:20:06.072Z,1284.00
2018-07-16T03:21:06.101Z,1312.00
2018-07-16T03:22:06.132Z,1364.00
2018-07-16T03:23:06.158Z,1404.00
2018-07-16T03:24:06.239Z,1320.00
2018-07-16T03:25:06.240Z,1276.00
2018-07-16T03:26:06.273Z,1296.00
2018-07-16T03:27:06.274Z,1296.00
2018-07-16T03:28:06.303Z,1252.00
2018-07-16T03:29:06.333Z,1116.00
2018-07-16T03:30:06.361Z,852.00
2018-07-16T03:31:06.389Z,664.00
2018-07-16T03:32:06.428Z,652.00
2018-07-16T03:33:06.449Z,688.00
2018-07-16T03:34:06.475Z,676.00
2018-07-16T03:35:06.507Z,616.00
2018-07-16T03:36:06.538Z,564.00
2018-07-16T03:37:06.570Z,548.00
2018-07-16T03:38:06.590Z,548.00
2018-07-16T03:39:06.622Z,532.00
2018-07-16T03:40:06.649Z,512.00
2018-07-16T03:41:06.677Z,500.00
2018-07-16T03:42:06.709Z,504.00
2018-07-16T03:43:06.735Z,516.00
2018-07-16T03:44:06.764Z,536.00
2018-07-16T03:45:06.791Z,584.00
2018-07-16T03:46:06.821Z,612.00
2018-07-16T03:47:06.868Z,580.00
2018-07-16T03:48:06.991Z,532.00
2018-07-16T03:49:06.907Z,536.00
2018-07-16T03:50:06.940Z,576.00
2018-07-16T03:51:06.965Z,620.00
2018-07-16T03:52:06.998Z,632.00
2018-07-16T03:53:07.025Z,624.00
2018-07-16T03:54:07.051Z,624.00
2018-07-16T03:55:07.106Z,624.00
2018-07-16T03:56:07.117Z,660.00
2018-07-16T03:57:07.138Z,748.00
2018-07-16T03:58:07.169Z,808.00
2018-07-16T03:59:07.196Z,808.00
2018-07-16T04:00:07.226Z,816.00
2018-07-16T04:01:07.252Z,872.00
2018-07-16T04:02:07.282Z,1040.00
2018-07-16T04:03:07.315Z,1356.00
2018-07-16T04:04:07.340Z,1560.00
2018-07-16T04:05:07.371Z,1540.00
2018-07-16T04:06:07.398Z,1352.00
2018-07-16T04:07:07.427Z,1116.00
2018-07-16T04:08:07.456Z,1060.00
2018-07-16T04:09:07.501Z,1208.00
2018-07-16T04:10:07.550Z,1308.00
2018-07-16T04:11:07.542Z,1220.00
2018-07-16T04:12:07.573Z,1364.00
2018-07-16T04:13:07.599Z,1908.00
2018-07-16T04:14:07.629Z,2204.00
2018-07-16T04:15:07.658Z,2100.00
2018-07-16T04:16:07.729Z,2120.00
2018-07-16T04:17:07.716Z,2252.00
2018-07-16T04:18:07.745Z,2304.00
2018-07-16T04:19:07.777Z,2432.00
2018-07-16T04:20:07.808Z,2640.00
2018-07-16T04:21:07.831Z,2864.00
2018-07-16T04:22:07.861Z,2988.00
2018-07-16T04:23:07.890Z,3008.00
2018-07-16T04:24:07.919Z,2980.00
2018-07-16T04:25:07.948Z,2968.00
2018-07-16T04:26:07.977Z,2940.00
2018-07-16T04:27:08.007Z,2924.00
2018-07-16T04:28:08.056Z,2900.00
2018-07-16T04:29:08.064Z,2736.00
2018-07-16T04:30:08.093Z,2628.00
2018-07-16T04:31:08.162Z,1968.00
2018-07-16T04:32:08.158Z,1056.00
2018-07-16T04:33:08.181Z,772.00
2018-07-16T04:34:08.217Z,696.00
2018-07-16T04:35:08.240Z,632.00
2018-07-16T04:36:08.269Z,616.00
2018-07-16T04:37:08.296Z,644.00
2018-07-16T04:38:08.326Z,816.00
2018-07-16T04:39:08.359Z,1200.00
2018-07-16T04:40:08.385Z,1624.00
2018-07-16T04:41:08.413Z,1524.00
2018-07-16T04:42:08.445Z,1000.00
2018-07-16T04:43:08.472Z,892.00
2018-07-16T04:44:08.502Z,1088.00
2018-07-16T04:45:08.533Z,1580.00
2018-07-16T04:46:08.559Z,2024.00
2018-07-16T04:47:08.589Z,1812.00
2018-07-16T04:48:08.619Z,1052.00
2018-07-16T04:49:08.652Z,768.00
2018-07-16T04:50:08.692Z,656.00
2018-07-16T04:51:08.708Z,676.00
2018-07-16T04:52:08.734Z,816.00
2018-07-16T04:53:08.763Z,852.00
2018-07-16T04:54:08.791Z,732.00
2018-07-16T04:55:08.821Z,600.00
2018-07-16T04:56:08.867Z,524.00
2018-07-16T04:57:08.878Z,552.00
2018-07-16T04:58:08.909Z,604.00
2018-07-16T04:59:08.938Z,572.00
2018-07-16T05:00:08.967Z,524.00
2018-07-16T05:01:08.995Z,460.00
2018-07-16T05:02:09.024Z,448.00
2018-07-16T05:03:09.088Z,464.00
2018-07-16T05:04:09.086Z,492.00
2018-07-16T05:05:09.112Z,528.00
2018-07-16T05:06:09.141Z,572.00
2018-07-16T05:07:09.170Z,628.00
2018-07-16T05:08:09.200Z,724.00
2018-07-16T05:09:09.228Z,800.00
2018-07-16T05:10:09.257Z,912.00
2018-07-16T05:11:09.288Z,1148.00
2018-07-16T05:12:09.316Z,1420.00
2018-07-16T05:13:09.344Z,1708.00
2018-07-16T05:14:09.375Z,1872.00
2018-07-16T05:15:09.403Z,1896.00
2018-07-16T05:16:09.435Z,1892.00
2018-07-16T05:17:09.461Z,1864.00
2018-07-16T05:18:09.555Z,1852.00
2018-07-16T05:19:09.521Z,1832.00
2018-07-16T05:20:09.549Z,1812.00
2018-07-16T05:21:09.578Z,1800.00
2018-07-16T05:22:09.610Z,1784.00
2018-07-16T05:23:09.640Z,1760.00
2018-07-16T05:24:09.725Z,1740.00
2018-07-16T05:25:09.702Z,1728.00
2018-07-16T05:26:09.723Z,1704.00
2018-07-16T05:27:09.753Z,1680.00
2018-07-16T05:28:09.782Z,1664.00
2018-07-16T05:29:09.810Z,1628.00
2018-07-16T05:30:09.843Z,1616.00
2018-07-16T05:31:09.870Z,1600.00
2018-07-16T05:32:10.017Z,1576.00
2018-07-16T05:33:09.928Z,1552.00
2018-07-16T05:34:09.977Z,1472.00
2018-07-16T05:35:09.989Z,1268.00
2018-07-16T05:36:10.018Z,1044.00
2018-07-16T05:37:10.046Z,1008.00
2018-07-16T05:38:10.081Z,1040.00
2018-07-16T05:39:10.103Z,1120.00
2018-07-16T05:40:10.136Z,1216.00
2018-07-16T05:41:10.161Z,1180.00
2018-07-16T05:42:10.190Z,1136.00
2018-07-16T05:43:10.230Z,1224.00
2018-07-16T05:44:10.251Z,1228.00
2018-07-16T05:45:10.278Z,1204.00
2018-07-16T05:46:10.311Z,1160.00
2018-07-16T05:47:10.336Z,1088.00
2018-07-16T05:48:10.368Z,960.00
2018-07-16T05:49:10.394Z,784.00
2018-07-16T05:50:10.429Z,608.00
2018-07-16T05:51:10.453Z,468.00
2018-07-16T05:52:10.483Z,428.00
2018-07-16T05:53:10.545Z,436.00
2018-07-16T05:54:10.555Z,444.00
2018-07-16T05:55:10.570Z,456.00
2018-07-16T05:56:10.600Z,480.00
2018-07-16T05:57:10.628Z,512.00
2018-07-16T05:58:10.715Z,556.00
2018-07-16T05:59:10.687Z,568.00
2018-07-16T06:00:10.717Z,564.00
2018-07-16T06:01:10.745Z,584.00
2018-07-16T06:02:10.775Z,604.00
2018-07-16T06:03:10.805Z,596.00
2018-07-16T06:04:10.833Z,592.00
2018-07-16T06:05:10.897Z,620.00
2018-07-16T06:06:10.892Z,680.00
2018-07-16T06:07:10.958Z,712.00
2018-07-16T06:08:10.950Z,748.00
2018-07-16T06:09:10.984Z,800.00
2018-07-16T06:10:11.009Z,908.00
2018-07-16T06:11:11.037Z,924.00
2018-07-16T06:12:11.068Z,916.00
2018-07-16T06:13:11.120Z,908.00
2018-07-16T06:14:11.124Z,892.00
2018-07-16T06:15:11.155Z,888.00
2018-07-16T06:16:11.186Z,872.00
2018-07-16T06:17:11.212Z,852.00
2018-07-16T06:18:11.242Z,836.00
2018-07-16T06:19:11.271Z,824.00
2018-07-16T06:20:11.300Z,808.00
2018-07-16T06:21:11.329Z,784.00
2018-07-16T06:22:11.360Z,772.00
2018-07-16T06:23:11.389Z,756.00
2018-07-16T06:24:11.466Z,744.00
2018-07-16T06:25:11.468Z,724.00
2018-07-16T06:26:11.475Z,712.00
2018-07-16T06:27:11.510Z,700.00
2018-07-16T06:28:11.534Z,688.00
2018-07-16T06:29:11.563Z,676.00
2018-07-16T06:30:11.597Z,664.00
2018-07-16T06:31:11.624Z,652.00
2018-07-16T06:32:11.652Z,640.00
2018-07-16T06:33:11.679Z,628.00
2018-07-16T06:34:11.710Z,620.00
2018-07-16T06:35:11.773Z,608.00
2018-07-16T06:36:11.769Z,596.00
2018-07-16T06:37:11.797Z,588.00
2018-07-16T06:38:11.840Z,576.00
2018-07-16T06:39:11.856Z,568.00
2018-07-16T06:40:11.993Z,556.00
2018-07-16T06:41:12.347Z,544.00
2018-07-16T06:42:11.943Z,536.00
2018-07-16T06:43:11.972Z,528.00
2018-07-16T06:44:12.002Z,516.00
2018-07-16T06:45:12.030Z,508.00
2018-07-16T06:46:12.091Z,500.00
2018-07-16T06:47:12.102Z,488.00
2018-07-16T06:48:12.120Z,480.00
2018-07-16T06:49:12.150Z,468.00
2018-07-16T06:50:12.176Z,460.00
2018-07-16T06:51:12.207Z,452.00
2018-07-16T06:52:12.297Z,444.00
2018-07-16T06:53:12.267Z,436.00
2018-07-16T06:54:12.295Z,424.00
2018-07-16T06:55:12.391Z,416.00
2018-07-16T06:56:12.352Z,408.00
2018-07-16T06:57:12.382Z,400.00
2018-07-16T06:58:12.412Z,392.00
2018-07-16T06:59:12.464Z,384.00
2018-07-16T07:00:12.470Z,380.00
2018-07-16T07:01:12.499Z,372.00
2018-07-16T07:02:12.551Z,364.00
2018-07-16T07:03:12.556Z,360.00
2018-07-16T07:04:12.587Z,352.00
2018-07-16T07:05:12.637Z,348.00
2018-07-16T07:06:12.645Z,344.00
2018-07-16T07:07:12.674Z,340.00
2018-07-16T07:08:12.704Z,336.00
2018-07-16T07:09:12.732Z,332.00
2018-07-16T07:10:12.837Z,328.00
2018-07-16T07:11:12.790Z,324.00
2018-07-16T07:12:12.820Z,320.00
2018-07-16T07:13:12.848Z,320.00
2018-07-16T07:14:12.879Z,316.00
2018-07-16T07:15:12.909Z,316.00
2018-07-16T07:16:12.936Z,312.00
2018-07-16T07:17:12.967Z,308.00
2018-07-16T07:18:13.036Z,308.00
2018-07-16T07:19:13.026Z,308.00
2018-07-16T07:20:13.054Z,308.00
2018-07-16T07:21:13.088Z,308.00
2018-07-16T07:22:13.112Z,304.00
2018-07-16T07:23:13.142Z,300.00
2018-07-16T07:24:13.171Z,304.00
2018-07-16T07:25:13.202Z,300.00
2018-07-16T07:26:13.267Z,300.00
2018-07-16T07:27:13.292Z,300.00
2018-07-16T07:28:13.288Z,304.00
2018-07-16T07:29:13.345Z,300.00
2018-07-16T07:30:13.357Z,300.00
2018-07-16T07:31:13.377Z,296.00
2018-07-16T07:32:13.405Z,296.00
2018-07-16T07:33:13.433Z,288.00
2018-07-16T07:34:13.476Z,284.00
2018-07-16T07:35:13.624Z,280.00
2018-07-16T07:36:13.590Z,276.00
2018-07-16T07:37:13.586Z,276.00
2018-07-16T07:38:13.579Z,272.00
2018-07-16T07:39:13.609Z,268.00
2018-07-16T07:40:13.642Z,268.00
2018-07-16T07:41:13.673Z,264.00
2018-07-16T07:42:13.697Z,264.00
2018-07-16T07:43:13.729Z,264.00
2018-07-16T07:44:13.757Z,264.00
2018-07-16T07:45:13.784Z,264.00
2018-07-16T07:46:13.816Z,264.00
2018-07-16T07:47:13.842Z,264.00
2018-07-16T07:48:13.874Z,264.00
2018-07-16T07:49:13.904Z,260.00
2018-07-16T07:50:13.931Z,264.00
2018-07-16T07:51:13.960Z,260.00
2018-07-16T07:52:13.993Z,260.00
2018-07-16T07:53:14.018Z,260.00
2018-07-16T07:54:14.139Z,260.00
2018-07-16T07:55:14.675Z,260.00
2018-07-16T07:56:14.107Z,260.00
2018-07-16T07:57:14.135Z,260.00
2018-07-16T07:58:14.209Z,260.00
2018-07-16T07:59:14.196Z,260.00
2018-07-16T08:00:14.224Z,260.00
2018-07-16T08:01:14.251Z,260.00
2018-07-16T08:02:14.283Z,260.00
2018-07-16T08:03:14.421Z,260.00
2018-07-16T08:04:14.340Z,260.00
2018-07-16T08:05:14.369Z,260.00
2018-07-16T08:06:14.398Z,260.00
2018-07-16T08:07:14.429Z,260.00
2018-07-16T08:08:14.459Z,256.00
2018-07-16T08:09:14.485Z,256.00
2018-07-16T08:10:14.514Z,256.00
2018-07-16T08:11:14.544Z,256.00
2018-07-16T08:12:14.574Z,260.00
2018-07-16T08:13:14.602Z,260.00
2018-07-16T08:14:14.632Z,260.00
2018-07-16T08:15:14.661Z,252.00
2018-07-16T08:16:14.691Z,252.00
2018-07-16T08:17:14.719Z,256.00
2018-07-16T08:18:14.750Z,256.00
2018-07-16T08:19:14.778Z,256.00
2018-07-16T08:20:14.808Z,252.00
2018-07-16T08:21:14.836Z,256.00
2018-07-16T08:22:14.868Z,252.00
2018-07-16T08:23:14.895Z,252.00
2018-07-16T08:24:14.926Z,256.00
2018-07-16T08:25:14.956Z,252.00
2018-07-16T08:26:14.983Z,256.00
2018-07-16T08:27:15.013Z,252.00
2018-07-16T08:28:15.100Z,252.00
2018-07-16T08:29:15.070Z,256.00
2018-07-16T08:30:15.102Z,252.00
2018-07-16T08:31:15.129Z,256.00
2018-07-16T08:32:15.193Z,256.00
2018-07-16T08:33:15.187Z,256.00
2018-07-16T08:34:15.216Z,252.00
2018-07-16T08:35:15.248Z,256.00
2018-07-16T08:36:15.278Z,252.00
2018-07-16T08:37:15.304Z,256.00
2018-07-16T08:38:15.333Z,252.00
2018-07-16T08:39:15.418Z,252.00
2018-07-16T08:40:15.459Z,252.00
2018-07-16T08:41:15.421Z,248.00
2018-07-16T08:42:15.450Z,256.00
2018-07-16T08:43:15.481Z,256.00
2018-07-16T08:44:15.508Z,216.00
2018-07-16T08:45:15.537Z,260.00
2018-07-16T08:46:15.639Z,244.00
2018-07-16T08:47:15.597Z,260.00
2018-07-16T08:48:15.629Z,260.00
2018-07-16T08:49:15.654Z,264.00
2018-07-16T08:50:15.684Z,264.00
2018-07-16T08:51:15.719Z,268.00
2018-07-16T08:52:15.777Z,264.00
2018-07-16T08:53:15.771Z,268.00
2018-07-16T08:54:15.803Z,264.00
2018-07-16T08:55:15.830Z,264.00
2018-07-16T08:56:15.859Z,264.00
2018-07-16T08:57:15.891Z,264.00
2018-07-16T08:58:15.917Z,268.00
2018-07-16T08:59:16.007Z,272.00
2018-07-16T09:00:15.975Z,276.00
2018-07-16T09:01:16.005Z,276.00
2018-07-16T09:02:16.035Z,284.00
2018-07-16T09:03:16.066Z,284.00
2018-07-16T09:04:16.094Z,284.00
2018-07-16T09:05:16.122Z,284.00
2018-07-16T09:06:16.151Z,284.00
2018-07-16T09:07:16.269Z,284.00
2018-07-16T09:08:16.210Z,288.00
2018-07-16T09:09:16.240Z,288.00
2018-07-16T09:10:16.268Z,292.00
2018-07-16T09:11:16.321Z,292.00
2018-07-16T09:12:16.330Z,296.00
2018-07-16T09:13:16.410Z,300.00
2018-07-16T09:14:16.387Z,300.00
2018-07-16T09:15:16.416Z,300.00
2018-07-16T09:16:16.443Z,304.00
2018-07-16T09:17:16.508Z,308.00
2018-07-16T09:18:16.502Z,308.00
2018-07-16T09:19:16.611Z,312.00
2018-07-16T09:20:16.560Z,316.00
2018-07-16T09:21:16.590Z,320.00
2018-07-16T09:22:16.618Z,328.00
2018-07-16T09:23:16.648Z,336.00
2018-07-16T09:24:16.677Z,336.00
2018-07-16T09:25:16.738Z,280.00
2018-07-16T09:26:16.734Z,276.00
2018-07-16T09:27:16.764Z,356.00
2018-07-16T09:28:16.794Z,364.00
2018-07-16T09:29:16.822Z,368.00
2018-07-16T09:30:16.853Z,376.00
2018-07-16T09:31:16.880Z,384.00
2018-07-16T09:32:16.910Z,388.00
2018-07-16T09:33:16.943Z,392.00
2018-07-16T09:34:16.968Z,396.00
2018-07-16T09:35:17.037Z,392.00
2018-07-16T09:36:17.037Z,388.00
2018-07-16T09:37:17.078Z,388.00
2018-07-16T09:38:17.127Z,384.00
2018-07-16T09:39:17.115Z,316.00
2018-07-16T09:40:17.145Z,372.00
2018-07-16T09:41:17.175Z,340.00
2018-07-16T09:42:17.233Z,352.00
2018-07-16T09:43:17.231Z,308.00
2018-07-16T09:44:17.267Z,296.00
2018-07-16T09:45:17.289Z,272.00
2018-07-16T09:46:17.319Z,264.00
2018-07-16T09:47:17.349Z,272.00
2018-07-16T09:48:17.378Z,312.00
2018-07-16T09:49:17.437Z,312.00
2018-07-16T09:50:17.436Z,304.00
2018-07-16T09:51:17.465Z,360.00
2018-07-16T09:52:17.497Z,360.00
2018-07-16T09:53:17.523Z,340.00
2018-07-16T09:54:17.553Z,360.00
2018-07-16T09:55:17.582Z,292.00
2018-07-16T09:56:17.622Z,260.00
2018-07-16T09:57:17.645Z,324.00
2018-07-16T09:58:17.669Z,336.00
2018-07-16T09:59:17.698Z,344.00
2018-07-16T10:00:17.731Z,328.00
2018-07-16T10:01:17.756Z,304.00
2018-07-16T10:02:17.786Z,264.00
2018-07-16T10:03:17.818Z,276.00
2018-07-16T10:04:17.845Z,280.00
2018-07-16T10:05:17.894Z,268.00
2018-07-16T10:06:17.902Z,284.00
2018-07-16T10:07:17.933Z,260.00
2018-07-16T10:08:18.002Z,252.00
2018-07-16T10:09:17.991Z,252.00
2018-07-16T10:10:18.022Z,248.00
2018-07-16T10:11:18.052Z,244.00
2018-07-16T10:12:18.079Z,240.00
2018-07-16T10:13:18.107Z,236.00
2018-07-16T10:14:18.137Z,232.00
2018-07-16T10:15:18.166Z,228.00
2018-07-16T10:16:18.197Z,228.00
2018-07-16T10:17:18.224Z,224.00
2018-07-16T10:18:18.253Z,216.00
2018-07-16T10:19:18.286Z,208.00
2018-07-16T10:20:18.391Z,200.00
2018-07-16T10:21:18.343Z,188.00
2018-07-16T10:22:18.371Z,176.00
2018-07-16T10:23:18.400Z,164.00
2018-07-16T10:24:18.429Z,160.00
2018-07-16T10:25:18.457Z,160.00
2018-07-16T10:26:18.487Z,156.00
2018-07-16T10:27:18.518Z,152.00
2018-07-16T10:28:18.570Z,148.00
2018-07-16T10:29:18.574Z,148.00
2018-07-16T10:30:18.604Z,152.00
2018-07-16T10:31:18.633Z,148.00
2018-07-16T10:32:18.693Z,152.00
2018-07-16T10:33:18.692Z,160.00
2018-07-16T10:34:18.722Z,172.00
2018-07-16T10:35:18.750Z,196.00
2018-07-16T10:36:18.780Z,248.00
2018-07-16T10:37:18.809Z,236.00
2018-07-16T10:38:18.838Z,228.00
2018-07-16T10:39:18.877Z,248.00
2018-07-16T10:40:18.901Z,248.00
2018-07-16T10:41:18.924Z,236.00
2018-07-16T10:42:18.957Z,232.00
2018-07-16T10:43:18.985Z,244.00
2018-07-16T10:44:19.013Z,244.00
2018-07-16T10:45:19.043Z,236.00
2018-07-16T10:46:19.109Z,200.00
2018-07-16T10:47:19.100Z,200.00
2018-07-16T10:48:19.133Z,184.00
2018-07-16T10:49:19.184Z,164.00
2018-07-16T10:50:19.189Z,172.00
2018-07-16T10:51:19.220Z,180.00
2018-07-16T10:52:19.246Z,176.00
2018-07-16T10:53:19.275Z,200.00
2018-07-16T10:54:19.308Z,164.00
2018-07-16T10:55:19.427Z,200.00
2018-07-16T10:56:19.382Z,232.00
2018-07-16T10:57:19.395Z,232.00
2018-07-16T10:58:19.421Z,232.00
2018-07-16T10:59:19.482Z,232.00
2018-07-16T11:00:19.514Z,232.00
2018-07-16T11:01:19.509Z,232.00
2018-07-16T11:02:19.537Z,232.00
2018-07-16T11:03:19.571Z,232.00
2018-07-16T11:04:19.597Z,236.00
2018-07-16T11:05:19.636Z,232.00
2018-07-16T11:06:19.693Z,232.00
2018-07-16T11:07:19.686Z,232.00
2018-07-16T11:08:19.715Z,236.00
2018-07-16T11:09:19.760Z,236.00
2018-07-16T11:10:19.771Z,232.00
2018-07-16T11:11:19.801Z,232.00
2018-07-16T11:12:19.830Z,232.00
2018-07-16T11:13:19.858Z,236.00
2018-07-16T11:14:19.888Z,236.00
2018-07-16T11:15:19.918Z,236.00
2018-07-16T11:16:19.951Z,236.00
2018-07-16T11:17:19.978Z,232.00
2018-07-16T11:18:20.006Z,232.00
2018-07-16T11:19:20.035Z,232.00
2018-07-16T11:20:20.064Z,236.00
2018-07-16T11:21:20.122Z,232.00
2018-07-16T11:22:20.124Z,232.00
2018-07-16T11:23:20.153Z,236.00
2018-07-16T11:24:20.181Z,240.00
2018-07-16T11:25:20.209Z,240.00
2018-07-16T11:26:20.238Z,240.00
2018-07-16T11:27:20.268Z,244.00
2018-07-16T11:28:20.298Z,244.00
2018-07-16T11:29:20.326Z,244.00
2018-07-16T11:30:20.356Z,240.00
2018-07-16T11:31:20.385Z,240.00
2018-07-16T11:32:20.415Z,240.00
2018-07-16T11:33:20.442Z,244.00
2018-07-16T11:34:20.472Z,244.00
2018-07-16T11:35:20.515Z,244.00
2018-07-16T11:36:20.532Z,248.00
2018-07-16T11:37:20.560Z,244.00
2018-07-16T11:38:20.590Z,240.00
2018-07-16T11:39:20.619Z,240.00
2018-07-16T11:40:20.650Z,236.00
2018-07-16T11:41:20.681Z,236.00
2018-07-16T11:42:20.709Z,232.00
2018-07-16T11:43:20.736Z,232.00
2018-07-16T11:44:20.767Z,228.00
2018-07-16T11:45:20.793Z,232.00
2018-07-16T11:46:20.823Z,228.00
2018-07-16T11:47:20.856Z,232.00
2018-07-16T11:48:20.939Z,232.00
2018-07-16T11:49:20.929Z,228.00
2018-07-16T11:50:20.942Z,228.00
2018-07-16T11:51:20.969Z,224.00
2018-07-16T11:52:21.091Z,228.00
2018-07-16T11:53:21.030Z,220.00
2018-07-16T11:54:21.057Z,224.00
2018-07-16T11:55:21.086Z,224.00
2018-07-16T11:56:21.122Z,224.00
2018-07-16T11:57:21.144Z,228.00
2018-07-16T11:58:21.174Z,228.00
2018-07-16T11:59:21.263Z,228.00
2018-07-16T12:00:21.233Z,232.00
2018-07-16T12:01:21.264Z,232.00
2018-07-16T12:02:21.328Z,228.00
2018-07-16T12:03:21.328Z,228.00
2018-07-16T12:04:21.349Z,228.00
2018-07-16T12:05:21.379Z,232.00
2018-07-16T12:06:21.408Z,232.00
2018-07-16T12:07:21.442Z,236.00
2018-07-16T12:08:21.467Z,236.00
2018-07-16T12:09:21.496Z,236.00
2018-07-16T12:10:21.547Z,236.00
2018-07-16T12:11:21.598Z,232.00
2018-07-16T12:12:21.622Z,232.00
2018-07-16T12:13:21.613Z,232.00
2018-07-16T12:14:21.644Z,232.00
2018-07-16T12:15:21.676Z,228.00
2018-07-16T12:16:21.702Z,232.00
2018-07-16T12:17:21.730Z,228.00
2018-07-16T12:18:21.760Z,232.00
2018-07-16T12:19:21.788Z,232.00
2018-07-16T12:20:21.864Z,228.00
2018-07-16T12:21:21.846Z,228.00
2018-07-16T12:22:21.878Z,228.00
2018-07-16T12:23:21.904Z,224.00
2018-07-16T12:24:21.934Z,224.00
2018-07-16T12:25:21.963Z,220.00
2018-07-16T12:26:21.993Z,216.00
2018-07-16T12:27:22.024Z,220.00
2018-07-16T12:28:22.051Z,216.00
2018-07-16T12:29:22.081Z,216.00
2018-07-16T12:30:22.110Z,216.00